sensor_id;sensor_type;location;lat;lon;timestamp;pressure;altitude;pressure_sealevel;temperature;humidity
84528;BME280;74768;51.152;6.196;2024-01-06T00:01:20;99642.09;;;6.17;100.00
84528;BME280;74768;51.152;6.196;2024-01-06T00:03:46;99648.13;;;6.19;100.00
84528;BME280;74768;51.152;6.196;2024-01-06T00:06:12;99653.41;;;6.17;100.00
84528;BME280;74768;51.152;6.196;2024-01-06T00:08:38;99650.00;;;6.15;100.00
84528;BME280;74768;51.152;6.196;2024-01-06T00:11:03;99653.38;;;6.19;100.00
84528;BME280;74768;51.152;6.196;2024-01-06T00:13:29;99658.59;;;6.19;100.00
84528;BME280;74768;51.152;6.196;2024-01-06T00:15:54;99659.50;;;6.18;100.00
84528;BME280;74768;51.152;6.196;2024-01-06T00:18:19;99667.38;;;6.18;100.00
84528;BME280;74768;51.152;6.196;2024-01-06T00:20:45;99670.00;;;6.18;100.00
84528;BME280;74768;51.152;6.196;2024-01-06T00:23:10;99673.59;;;6.15;100.00
84528;BME280;74768;51.152;6.196;2024-01-06T00:25:35;99678.72;;;6.18;100.00
84528;BME280;74768;51.152;6.196;2024-01-06T00:28:00;99679.56;;;6.19;100.00
84528;BME280;74768;51.152;6.196;2024-01-06T00:30:26;99687.38;;;6.20;100.00
84528;BME280;74768;51.152;6.196;2024-01-06T00:32:51;99689.84;;;6.23;100.00
84528;BME280;74768;51.152;6.196;2024-01-06T00:35:16;99688.03;;;6.25;100.00
84528;BME280;74768;51.152;6.196;2024-01-06T00:37:41;99680.16;;;6.25;100.00
84528;BME280;74768;51.152;6.196;2024-01-06T00:40:07;99684.50;;;6.27;100.00
84528;BME280;74768;51.152;6.196;2024-01-06T00:42:32;99685.34;;;6.27;100.00
84528;BME280;74768;51.152;6.196;2024-01-06T00:44:57;99687.06;;;6.28;100.00
84528;BME280;74768;51.152;6.196;2024-01-06T00:47:23;99694.13;;;6.26;100.00
84528;BME280;74768;51.152;6.196;2024-01-06T00:49:49;99699.22;;;6.29;100.00
84528;BME280;74768;51.152;6.196;2024-01-06T00:52:14;99693.06;;;6.30;100.00
84528;BME280;74768;51.152;6.196;2024-01-06T00:54:40;99691.25;;;6.32;100.00
84528;BME280;74768;51.152;6.196;2024-01-06T00:57:05;99692.09;;;6.33;100.00
84528;BME280;74768;51.152;6.196;2024-01-06T00:59:30;99687.72;;;6.33;100.00
84528;BME280;74768;51.152;6.196;2024-01-06T01:01:55;99693.94;;;6.31;100.00
84528;BME280;74768;51.152;6.196;2024-01-06T01:04:21;99686.91;;;6.31;100.00
84528;BME280;74768;51.152;6.196;2024-01-06T01:06:46;99686.91;;;6.31;100.00
84528;BME280;74768;51.152;6.196;2024-01-06T01:09:11;99696.50;;;6.32;100.00
84528;BME280;74768;51.152;6.196;2024-01-06T01:11:38;99691.25;;;6.32;100.00
84528;BME280;74768;51.152;6.196;2024-01-06T01:14:04;99696.44;;;6.34;100.00
84528;BME280;74768;51.152;6.196;2024-01-06T01:16:29;99693.81;;;6.34;100.00
84528;BME280;74768;51.152;6.196;2024-01-06T01:18:54;99701.63;;;6.35;100.00
84528;BME280;74768;51.152;6.196;2024-01-06T01:21:20;99705.91;;;6.36;100.00
84528;BME280;74768;51.152;6.196;2024-01-06T01:23:45;99710.19;;;6.39;100.00
84528;BME280;74768;51.152;6.196;2024-01-06T01:26:10;99716.19;;;6.42;100.00
84528;BME280;74768;51.152;6.196;2024-01-06T01:28:36;99716.09;;;6.44;100.00
84528;BME280;74768;51.152;6.196;2024-01-06T01:31:01;99716.09;;;6.44;100.00
84528;BME280;74768;51.152;6.196;2024-01-06T01:33:27;99717.94;;;6.42;100.00
84528;BME280;74768;51.152;6.196;2024-01-06T01:35:52;99719.72;;;6.41;100.00
84528;BME280;74768;51.152;6.196;2024-01-06T01:38:17;99717.16;;;6.40;100.00
84528;BME280;74768;51.152;6.196;2024-01-06T01:40:42;99717.16;;;6.40;100.00
84528;BME280;74768;51.152;6.196;2024-01-06T01:43:16;99718.91;;;6.39;100.00
84528;BME280;74768;51.152;6.196;2024-01-06T01:45:42;99731.22;;;6.37;100.00
84528;BME280;74768;51.152;6.196;2024-01-06T01:48:07;99733.06;;;6.35;100.00
84528;BME280;74768;51.152;6.196;2024-01-06T01:50:33;99731.22;;;6.37;100.00
84528;BME280;74768;51.152;6.196;2024-01-06T01:52:59;99737.25;;;6.39;100.00
84528;BME280;74768;51.152;6.196;2024-01-06T01:55:24;99745.19;;;6.38;100.00
84528;BME280;74768;51.152;6.196;2024-01-06T01:57:50;99744.31;;;6.37;100.00
84528;BME280;74768;51.152;6.196;2024-01-06T02:00:15;99748.66;;;6.38;100.00
84528;BME280;74768;51.152;6.196;2024-01-06T02:02:41;99756.47;;;6.40;100.00
84528;BME280;74768;51.152;6.196;2024-01-06T02:05:06;99745.13;;;6.39;100.00
84528;BME280;74768;51.152;6.196;2024-01-06T02:07:31;99747.69;;;6.41;100.00
84528;BME280;74768;51.152;6.196;2024-01-06T02:09:57;99750.38;;;6.39;100.00
84528;BME280;74768;51.152;6.196;2024-01-06T02:12:22;99751.28;;;6.38;100.00
84528;BME280;74768;51.152;6.196;2024-01-06T02:14:47;99749.50;;;6.39;100.00
84528;BME280;74768;51.152;6.196;2024-01-06T02:17:12;99758.19;;;6.41;100.00
84528;BME280;74768;51.152;6.196;2024-01-06T02:19:38;99752.13;;;6.39;100.00
84528;BME280;74768;51.152;6.196;2024-01-06T02:22:03;99753.84;;;6.40;100.00
84528;BME280;74768;51.152;6.196;2024-01-06T02:24:28;99760.84;;;6.39;100.00
84528;BME280;74768;51.152;6.196;2024-01-06T02:26:54;99762.66;;;6.37;100.00
84528;BME280;74768;51.152;6.196;2024-01-06T02:29:19;99770.66;;;6.34;100.00
84528;BME280;74768;51.152;6.196;2024-01-06T02:31:44;99776.78;;;6.35;100.00
84528;BME280;74768;51.152;6.196;2024-01-06T02:34:11;99777.63;;;6.35;100.00
84528;BME280;74768;51.152;6.196;2024-01-06T02:36:36;99776.78;;;6.35;100.00
84528;BME280;74768;51.152;6.196;2024-01-06T02:39:02;99781.88;;;6.38;100.00
84528;BME280;74768;51.152;6.196;2024-01-06T02:41:27;99784.50;;;6.38;100.00
84528;BME280;74768;51.152;6.196;2024-01-06T02:43:54;99780.16;;;6.37;100.00
84528;BME280;74768;51.152;6.196;2024-01-06T02:46:20;99781.16;;;6.34;100.00
84528;BME280;74768;51.152;6.196;2024-01-06T02:48:45;99783.88;;;6.31;100.00
84528;BME280;74768;51.152;6.196;2024-01-06T02:51:11;99792.53;;;6.33;100.00
84528;BME280;74768;51.152;6.196;2024-01-06T02:53:37;99794.38;;;6.31;100.00
84528;BME280;74768;51.152;6.196;2024-01-06T02:56:03;99801.41;;;6.29;100.00
84528;BME280;74768;51.152;6.196;2024-01-06T02:58:28;99804.84;;;6.31;100.00
84528;BME280;74768;51.152;6.196;2024-01-06T03:00:54;99804.03;;;6.29;100.00
84528;BME280;74768;51.152;6.196;2024-01-06T03:03:19;99810.13;;;6.30;99.99
84528;BME280;74768;51.152;6.196;2024-01-06T03:05:44;99813.50;;;6.33;99.76
84528;BME280;74768;51.152;6.196;2024-01-06T03:08:12;99817.94;;;6.31;99.66
84528;BME280;74768;51.152;6.196;2024-01-06T03:10:37;99817.13;;;6.29;99.22
84528;BME280;74768;51.152;6.196;2024-01-06T03:13:03;99815.47;;;6.28;98.78
84528;BME280;74768;51.152;6.196;2024-01-06T03:15:28;99821.75;;;6.22;98.98
84528;BME280;74768;51.152;6.196;2024-01-06T03:17:53;99829.69;;;6.21;98.56
84528;BME280;74768;51.152;6.196;2024-01-06T03:20:19;99832.47;;;6.16;98.63
84528;BME280;74768;51.152;6.196;2024-01-06T03:22:44;99835.97;;;6.17;99.04
84528;BME280;74768;51.152;6.196;2024-01-06T03:25:09;99832.53;;;6.15;98.60
84528;BME280;74768;51.152;6.196;2024-01-06T03:27:35;99845.75;;;6.12;99.11
84528;BME280;74768;51.152;6.196;2024-01-06T03:30:00;99842.28;;;6.11;98.80
84528;BME280;74768;51.152;6.196;2024-01-06T03:32:25;99845.06;;;6.07;98.89
84528;BME280;74768;51.152;6.196;2024-01-06T03:34:51;99846.03;;;6.04;99.26
84528;BME280;74768;51.152;6.196;2024-01-06T03:37:16;99852.25;;;6.02;98.99
84528;BME280;74768;51.152;6.196;2024-01-06T03:39:41;99853.19;;;5.99;98.95
84528;BME280;74768;51.152;6.196;2024-01-06T03:42:06;99853.19;;;5.99;99.27
84528;BME280;74768;51.152;6.196;2024-01-06T03:44:32;99857.75;;;5.94;98.72
84528;BME280;74768;51.152;6.196;2024-01-06T03:46:59;99863.91;;;5.93;99.32
84528;BME280;74768;51.152;6.196;2024-01-06T03:49:24;99871.72;;;5.95;99.08
84528;BME280;74768;51.152;6.196;2024-01-06T03:51:50;99881.47;;;5.91;98.55
84528;BME280;74768;51.152;6.196;2024-01-06T03:54:15;99876.25;;;5.90;98.81
84528;BME280;74768;51.152;6.196;2024-01-06T03:56:40;99877.19;;;5.87;99.26
84528;BME280;74768;51.152;6.196;2024-01-06T03:59:06;99880.69;;;5.88;98.41
84528;BME280;74768;51.152;6.196;2024-01-06T04:01:31;99880.06;;;5.79;98.44
84528;BME280;74768;51.152;6.196;2024-01-06T04:04:00;99888.84;;;5.78;98.02
84528;BME280;74768;51.152;6.196;2024-01-06T04:06:25;99884.63;;;5.74;98.44
84528;BME280;74768;51.152;6.196;2024-01-06T04:08:52;99891.63;;;5.74;98.43
84528;BME280;74768;51.152;6.196;2024-01-06T04:11:20;99891.66;;;5.72;97.91
84528;BME280;74768;51.152;6.196;2024-01-06T04:13:45;99893.47;;;5.70;98.53
84528;BME280;74768;51.152;6.196;2024-01-06T04:16:10;99894.41;;;5.69;98.67
84528;BME280;74768;51.152;6.196;2024-01-06T04:18:35;99902.25;;;5.69;97.68
84528;BME280;74768;51.152;6.196;2024-01-06T04:21:01;99892.84;;;5.64;97.23
84528;BME280;74768;51.152;6.196;2024-01-06T04:23:26;99893.88;;;5.60;96.87
84528;BME280;74768;51.152;6.196;2024-01-06T04:25:52;99902.63;;;5.59;97.39
84528;BME280;74768;51.152;6.196;2024-01-06T04:28:17;99899.41;;;5.51;96.75
84528;BME280;74768;51.152;6.196;2024-01-06T04:30:42;99901.34;;;5.45;96.45
84528;BME280;74768;51.152;6.196;2024-01-06T04:33:08;99902.31;;;5.41;97.67
84528;BME280;74768;51.152;6.196;2024-01-06T04:35:33;99912.88;;;5.40;97.42
84528;BME280;74768;51.152;6.196;2024-01-06T04:37:58;99911.16;;;5.39;96.45
84528;BME280;74768;51.152;6.196;2024-01-06T04:40:23;99914.88;;;5.32;96.38
84528;BME280;74768;51.152;6.196;2024-01-06T04:42:49;99912.50;;;5.24;96.11
84528;BME280;74768;51.152;6.196;2024-01-06T04:45:14;99921.53;;;5.14;96.06
84528;BME280;74768;51.152;6.196;2024-01-06T04:47:39;99930.41;;;5.10;96.66
84528;BME280;74768;51.152;6.196;2024-01-06T04:50:05;99927.13;;;5.03;97.10
84528;BME280;74768;51.152;6.196;2024-01-06T04:52:30;99928.06;;;5.01;96.11
84528;BME280;74768;51.152;6.196;2024-01-06T04:54:56;99918.75;;;4.92;95.28
84528;BME280;74768;51.152;6.196;2024-01-06T04:57:21;99929.25;;;4.91;95.00
84528;BME280;74768;51.152;6.196;2024-01-06T04:59:46;99928.47;;;4.89;96.33
84528;BME280;74768;51.152;6.196;2024-01-06T05:02:12;99934.72;;;4.83;95.82
84528;BME280;74768;51.152;6.196;2024-01-06T05:04:37;99942.75;;;4.77;96.56
84528;BME280;74768;51.152;6.196;2024-01-06T05:07:03;99943.63;;;4.76;97.42
84528;BME280;74768;51.152;6.196;2024-01-06T05:09:29;99944.69;;;4.70;96.84
84528;BME280;74768;51.152;6.196;2024-01-06T05:11:54;99945.50;;;4.73;96.52
84528;BME280;74768;51.152;6.196;2024-01-06T05:14:19;99955.25;;;4.67;96.60
84528;BME280;74768;51.152;6.196;2024-01-06T05:16:45;99955.06;;;4.74;97.57
84528;BME280;74768;51.152;6.196;2024-01-06T05:19:10;99957.56;;;4.77;97.16
84528;BME280;74768;51.152;6.196;2024-01-06T05:21:35;99959.63;;;4.67;96.36
84528;BME280;74768;51.152;6.196;2024-01-06T05:24:01;99965.75;;;4.66;96.13
84528;BME280;74768;51.152;6.196;2024-01-06T05:26:28;99964.09;;;4.62;96.03
84528;BME280;74768;51.152;6.196;2024-01-06T05:28:53;99967.75;;;4.56;95.73
84528;BME280;74768;51.152;6.196;2024-01-06T05:31:19;99975.75;;;4.52;95.67
84528;BME280;74768;51.152;6.196;2024-01-06T05:33:44;99980.22;;;4.47;95.14
84528;BME280;74768;51.152;6.196;2024-01-06T05:36:09;99980.31;;;4.44;95.05
84528;BME280;74768;51.152;6.196;2024-01-06T05:38:36;99976.00;;;4.43;95.41
84528;BME280;74768;51.152;6.196;2024-01-06T05:41:01;99980.44;;;4.39;94.97
84528;BME280;74768;51.152;6.196;2024-01-06T05:43:27;99981.38;;;4.38;95.12
84528;BME280;74768;51.152;6.196;2024-01-06T05:45:52;99981.38;;;4.38;95.93
84528;BME280;74768;51.152;6.196;2024-01-06T05:48:17;99984.91;;;4.36;95.21
84528;BME280;74768;51.152;6.196;2024-01-06T05:50:43;99981.41;;;4.37;95.81
84528;BME280;74768;51.152;6.196;2024-01-06T05:53:08;99990.88;;;4.39;95.41
84528;BME280;74768;51.152;6.196;2024-01-06T05:55:34;99997.78;;;4.42;95.93
84528;BME280;74768;51.152;6.196;2024-01-06T05:57:59;100000.44;;;4.40;95.38
84528;BME280;74768;51.152;6.196;2024-01-06T06:00:26;100002.16;;;4.41;95.69
84528;BME280;74768;51.152;6.196;2024-01-06T06:02:51;100003.06;;;4.40;95.97
84528;BME280;74768;51.152;6.196;2024-01-06T06:05:16;100002.94;;;4.45;95.60
84528;BME280;74768;51.152;6.196;2024-01-06T06:07:42;100006.47;;;4.42;94.86
84528;BME280;74768;51.152;6.196;2024-01-06T06:10:09;100018.72;;;4.40;94.64
84528;BME280;74768;51.152;6.196;2024-01-06T06:12:35;100012.72;;;4.38;94.64
84528;BME280;74768;51.152;6.196;2024-01-06T06:15:01;100021.66;;;4.29;94.94
84528;BME280;74768;51.152;6.196;2024-01-06T06:17:27;100022.44;;;4.31;95.27
84528;BME280;74768;51.152;6.196;2024-01-06T06:19:52;100033.72;;;4.34;94.94
84528;BME280;74768;51.152;6.196;2024-01-06T06:22:18;100038.97;;;4.32;94.64
84528;BME280;74768;51.152;6.196;2024-01-06T06:24:43;100043.34;;;4.31;95.88
84528;BME280;74768;51.152;6.196;2024-01-06T06:27:09;100056.38;;;4.33;95.47
84528;BME280;74768;51.152;6.196;2024-01-06T06:29:34;100051.28;;;4.28;95.25
84528;BME280;74768;51.152;6.196;2024-01-06T06:31:59;100052.94;;;4.31;96.10
84528;BME280;74768;51.152;6.196;2024-01-06T06:34:25;100054.66;;;4.32;95.50
84528;BME280;74768;51.152;6.196;2024-01-06T06:36:51;100057.25;;;4.32;95.55
84528;BME280;74768;51.152;6.196;2024-01-06T06:39:16;100070.38;;;4.30;95.42
84528;BME280;74768;51.152;6.196;2024-01-06T06:41:43;100061.72;;;4.28;95.54
84528;BME280;74768;51.152;6.196;2024-01-06T06:44:08;100081.88;;;4.23;94.86
84528;BME280;74768;51.152;6.196;2024-01-06T06:46:34;100083.56;;;4.24;95.71
84528;BME280;74768;51.152;6.196;2024-01-06T06:48:59;100081.75;;;4.28;95.62
84528;BME280;74768;51.152;6.196;2024-01-06T06:51:24;100082.66;;;4.27;96.01
84528;BME280;74768;51.152;6.196;2024-01-06T06:53:52;100083.53;;;4.26;95.25
84528;BME280;74768;51.152;6.196;2024-01-06T06:56:17;100084.50;;;4.23;95.42
84528;BME280;74768;51.152;6.196;2024-01-06T06:58:42;100089.63;;;4.26;94.95
84528;BME280;74768;51.152;6.196;2024-01-06T07:01:08;100094.09;;;4.23;95.54
84528;BME280;74768;51.152;6.196;2024-01-06T07:03:33;100094.94;;;4.23;95.93
84528;BME280;74768;51.152;6.196;2024-01-06T07:05:58;100101.06;;;4.22;95.67
84528;BME280;74768;51.152;6.196;2024-01-06T07:08:23;100101.81;;;4.26;95.94
84528;BME280;74768;51.152;6.196;2024-01-06T07:10:49;100108.06;;;4.20;95.95
84528;BME280;74768;51.152;6.196;2024-01-06T07:13:14;100110.72;;;4.19;95.46
84528;BME280;74768;51.152;6.196;2024-01-06T07:15:39;100115.16;;;4.15;95.94
84528;BME280;74768;51.152;6.196;2024-01-06T07:18:05;100116.94;;;4.15;95.82
84528;BME280;74768;51.152;6.196;2024-01-06T07:20:30;100123.97;;;4.11;95.88
84528;BME280;74768;51.152;6.196;2024-01-06T07:22:55;100130.03;;;4.12;95.54
84528;BME280;74768;51.152;6.196;2024-01-06T07:25:20;100130.94;;;4.11;94.81
84528;BME280;74768;51.152;6.196;2024-01-06T07:27:46;100137.88;;;4.12;95.20
84528;BME280;74768;51.152;6.196;2024-01-06T07:30:11;100147.47;;;4.11;95.28
84528;BME280;74768;51.152;6.196;2024-01-06T07:32:37;100150.88;;;4.15;95.24
84528;BME280;74768;51.152;6.196;2024-01-06T07:35:02;100143.91;;;4.15;95.43
84528;BME280;74768;51.152;6.196;2024-01-06T07:37:27;100148.28;;;4.13;95.57
84528;BME280;74768;51.152;6.196;2024-01-06T07:39:53;100150.88;;;4.15;96.19
84528;BME280;74768;51.152;6.196;2024-01-06T07:42:18;100154.41;;;4.12;94.32
84528;BME280;74768;51.152;6.196;2024-01-06T07:44:43;100170.09;;;4.11;94.58
84528;BME280;74768;51.152;6.196;2024-01-06T07:47:09;100171.81;;;4.12;95.49
84528;BME280;74768;51.152;6.196;2024-01-06T07:49:35;100183.13;;;4.12;94.94
84528;BME280;74768;51.152;6.196;2024-01-06T07:52:00;100182.22;;;4.15;95.68
84528;BME280;74768;51.152;6.196;2024-01-06T07:54:26;100181.19;;;4.20;95.49
84528;BME280;74768;51.152;6.196;2024-01-06T07:56:51;100185.59;;;4.18;94.83
84528;BME280;74768;51.152;6.196;2024-01-06T07:59:16;100189.09;;;4.17;93.44
84528;BME280;74768;51.152;6.196;2024-01-06T08:01:42;100194.31;;;4.17;94.30
84528;BME280;74768;51.152;6.196;2024-01-06T08:04:10;100199.50;;;4.19;94.23
84528;BME280;74768;51.152;6.196;2024-01-06T08:06:35;100202.88;;;4.24;94.30
84528;BME280;74768;51.152;6.196;2024-01-06T08:09:01;100201.91;;;4.28;93.57
84528;BME280;74768;51.152;6.196;2024-01-06T08:11:26;100203.47;;;4.35;94.23
84528;BME280;74768;51.152;6.196;2024-01-06T08:13:51;100211.19;;;4.40;93.58
84528;BME280;74768;51.152;6.196;2024-01-06T08:16:18;100215.47;;;4.44;92.56
84528;BME280;74768;51.152;6.196;2024-01-06T08:18:43;100213.75;;;4.43;92.65
84528;BME280;74768;51.152;6.196;2024-01-06T08:21:10;100212.84;;;4.44;93.45
84528;BME280;74768;51.152;6.196;2024-01-06T08:23:35;100229.28;;;4.49;94.08
84528;BME280;74768;51.152;6.196;2024-01-06T08:26:01;100232.69;;;4.52;93.53
84528;BME280;74768;51.152;6.196;2024-01-06T08:28:26;100230.13;;;4.49;93.59
84528;BME280;74768;51.152;6.196;2024-01-06T08:30:52;100238.78;;;4.53;93.38
84528;BME280;74768;51.152;6.196;2024-01-06T08:33:17;100229.28;;;4.49;92.61
84528;BME280;74768;51.152;6.196;2024-01-06T08:35:43;100236.34;;;4.45;92.22
84528;BME280;74768;51.152;6.196;2024-01-06T08:38:08;100247.63;;;4.46;93.08
84528;BME280;74768;51.152;6.196;2024-01-06T08:40:34;100253.78;;;4.45;93.02
84528;BME280;74768;51.152;6.196;2024-01-06T08:43:00;100257.31;;;4.42;93.18
84528;BME280;74768;51.152;6.196;2024-01-06T08:45:25;100260.84;;;4.40;93.70
84528;BME280;74768;51.152;6.196;2024-01-06T08:47:51;100261.81;;;4.36;93.52
84528;BME280;74768;51.152;6.196;2024-01-06T08:50:16;100270.53;;;4.35;93.29
84528;BME280;74768;51.152;6.196;2024-01-06T08:52:41;100272.25;;;4.36;93.31
84528;BME280;74768;51.152;6.196;2024-01-06T08:55:07;100281.78;;;4.38;93.42
84528;BME280;74768;51.152;6.196;2024-01-06T08:57:33;100282.75;;;4.34;93.79
84528;BME280;74768;51.152;6.196;2024-01-06T08:59:58;100288.94;;;4.30;94.21
84528;BME280;74768;51.152;6.196;2024-01-06T09:02:24;100289.00;;;4.27;94.48
84528;BME280;74768;51.152;6.196;2024-01-06T09:04:49;100292.53;;;4.24;94.27
84528;BME280;74768;51.152;6.196;2024-01-06T09:07:14;100302.09;;;4.25;94.22
84528;BME280;74768;51.152;6.196;2024-01-06T09:09:39;100297.69;;;4.27;94.93
84528;BME280;74768;51.152;6.196;2024-01-06T09:12:05;100310.66;;;4.32;95.37
84528;BME280;74768;51.152;6.196;2024-01-06T09:14:30;100316.75;;;4.31;94.25
84528;BME280;74768;51.152;6.196;2024-01-06T09:16:56;100321.19;;;4.29;93.77
84528;BME280;74768;51.152;6.196;2024-01-06T09:19:21;100323.81;;;4.27;95.49
84528;BME280;74768;51.152;6.196;2024-01-06T09:21:47;100327.31;;;4.26;95.48
84528;BME280;74768;51.152;6.196;2024-01-06T09:24:12;100329.03;;;4.29;94.85
84528;BME280;74768;51.152;6.196;2024-01-06T09:26:37;100322.91;;;4.30;94.85
84528;BME280;74768;51.152;6.196;2024-01-06T09:29:03;100335.13;;;4.28;95.42
84528;BME280;74768;51.152;6.196;2024-01-06T09:31:29;100336.00;;;4.28;95.55
84528;BME280;74768;51.152;6.196;2024-01-06T09:33:54;100341.28;;;4.25;96.23
84528;BME280;74768;51.152;6.196;2024-01-06T09:36:20;100343.09;;;4.23;96.38
84528;BME280;74768;51.152;6.196;2024-01-06T09:38:45;100344.00;;;4.21;96.09
84528;BME280;74768;51.152;6.196;2024-01-06T09:41:10;100349.25;;;4.19;96.38
84528;BME280;74768;51.152;6.196;2024-01-06T09:43:36;100348.34;;;4.20;96.47
84528;BME280;74768;51.152;6.196;2024-01-06T09:46:10;100357.94;;;4.20;96.74
84528;BME280;74768;51.152;6.196;2024-01-06T09:48:40;100370.88;;;4.26;97.51
84528;BME280;74768;51.152;6.196;2024-01-06T09:51:11;100359.53;;;4.27;96.47
84528;BME280;74768;51.152;6.196;2024-01-06T09:53:57;100364.66;;;4.31;96.74
84528;BME280;74768;51.152;6.196;2024-01-06T09:56:25;100362.94;;;4.30;96.15
84528;BME280;74768;51.152;6.196;2024-01-06T09:58:50;100365.63;;;4.26;96.19
84528;BME280;74768;51.152;6.196;2024-01-06T10:01:17;100370.88;;;4.24;96.62
84528;BME280;74768;51.152;6.196;2024-01-06T10:03:43;100370.13;;;4.19;96.56
84528;BME280;74768;51.152;6.196;2024-01-06T10:06:10;100378.06;;;4.16;96.15
84528;BME280;74768;51.152;6.196;2024-01-06T10:08:36;100371.88;;;4.19;96.44
84528;BME280;74768;51.152;6.196;2024-01-06T10:11:01;100371.88;;;4.19;96.04
84528;BME280;74768;51.152;6.196;2024-01-06T10:13:26;100377.28;;;4.10;96.05
84528;BME280;74768;51.152;6.196;2024-01-06T10:15:54;100385.19;;;4.08;96.73
84528;BME280;74768;51.152;6.196;2024-01-06T10:18:20;100380.75;;;4.12;97.22
84528;BME280;74768;51.152;6.196;2024-01-06T10:20:46;100384.22;;;4.12;97.17
84528;BME280;74768;51.152;6.196;2024-01-06T10:23:11;100385.06;;;4.13;97.36
84528;BME280;74768;51.152;6.196;2024-01-06T10:25:36;100385.13;;;4.10;96.86
84528;BME280;74768;51.152;6.196;2024-01-06T10:28:02;100390.28;;;4.14;96.15
84528;BME280;74768;51.152;6.196;2024-01-06T10:30:28;100391.28;;;4.09;96.05
84528;BME280;74768;51.152;6.196;2024-01-06T10:32:54;100390.59;;;3.98;96.45
84528;BME280;74768;51.152;6.196;2024-01-06T10:35:19;100397.50;;;4.02;97.09
84528;BME280;74768;51.152;6.196;2024-01-06T10:37:45;100404.41;;;4.03;97.47
84528;BME280;74768;51.152;6.196;2024-01-06T10:40:14;100407.81;;;4.08;96.82
84528;BME280;74768;51.152;6.196;2024-01-06T10:42:41;100408.69;;;4.08;96.14
84528;BME280;74768;51.152;6.196;2024-01-06T10:45:08;100400.22;;;3.96;95.59
84528;BME280;74768;51.152;6.196;2024-01-06T10:47:36;100406.28;;;3.98;96.31
84528;BME280;74768;51.152;6.196;2024-01-06T10:50:01;100406.28;;;3.96;95.86
84528;BME280;74768;51.152;6.196;2024-01-06T10:52:28;100403.69;;;3.96;95.85
84528;BME280;74768;51.152;6.196;2024-01-06T10:54:54;100404.50;;;4.00;96.13
84528;BME280;74768;51.152;6.196;2024-01-06T10:57:20;100407.13;;;3.98;95.96
84528;BME280;74768;51.152;6.196;2024-01-06T10:59:49;100409.75;;;3.98;96.44
84528;BME280;74768;51.152;6.196;2024-01-06T11:02:15;100404.53;;;3.97;96.18
84528;BME280;74768;51.152;6.196;2024-01-06T11:04:45;100406.31;;;3.95;95.72
84528;BME280;74768;51.152;6.196;2024-01-06T11:07:16;100420.16;;;4.01;95.82
84528;BME280;74768;51.152;6.196;2024-01-06T11:10:05;100417.75;;;3.87;94.78
84528;BME280;74768;51.152;6.196;2024-01-06T11:12:32;100415.13;;;3.89;95.78
84528;BME280;74768;51.152;6.196;2024-01-06T11:14:58;100417.69;;;3.92;95.61
84528;BME280;74768;51.152;6.196;2024-01-06T11:17:49;100413.25;;;3.97;96.33
84528;BME280;74768;51.152;6.196;2024-01-06T11:20:26;100419.50;;;3.88;95.71
84528;BME280;74768;51.152;6.196;2024-01-06T11:22:52;100420.44;;;3.84;95.60
84528;BME280;74768;51.152;6.196;2024-01-06T11:25:21;100424.72;;;3.88;95.71
84528;BME280;74768;51.152;6.196;2024-01-06T11:27:49;100420.44;;;3.84;95.65
84528;BME280;74768;51.152;6.196;2024-01-06T11:32:45;100419.00;;;3.68;95.60
84528;BME280;74768;51.152;6.196;2024-01-06T11:35:14;100421.53;;;3.73;95.52
84528;BME280;74768;51.152;6.196;2024-01-06T11:40:17;100415.66;;;3.62;96.04
84528;BME280;74768;51.152;6.196;2024-01-06T11:43:04;100417.41;;;3.60;95.83
84528;BME280;74768;51.152;6.196;2024-01-06T11:45:34;100424.34;;;3.61;95.98
84528;BME280;74768;51.152;6.196;2024-01-06T11:48:01;100421.91;;;3.51;96.18
84528;BME280;74768;51.152;6.196;2024-01-06T11:50:29;100419.91;;;3.66;96.78
84528;BME280;74768;51.152;6.196;2024-01-06T11:52:55;100416.50;;;3.62;95.96
84528;BME280;74768;51.152;6.196;2024-01-06T11:55:21;100421.03;;;3.52;96.23
84528;BME280;74768;51.152;6.196;2024-01-06T11:57:46;100416.63;;;3.56;96.16
84528;BME280;74768;51.152;6.196;2024-01-06T12:00:13;100426.09;;;3.62;96.56
84528;BME280;74768;51.152;6.196;2024-01-06T12:02:42;100427.13;;;3.51;95.83
84528;BME280;74768;51.152;6.196;2024-01-06T12:05:17;100421.91;;;3.51;96.46
84528;BME280;74768;51.152;6.196;2024-01-06T12:07:52;100424.44;;;3.58;96.58
84528;BME280;74768;51.152;6.196;2024-01-06T12:10:20;100427.06;;;3.56;96.46
84528;BME280;74768;51.152;6.196;2024-01-06T12:12:58;100433.88;;;3.65;96.17
84528;BME280;74768;51.152;6.196;2024-01-06T12:15:24;100434.75;;;3.65;95.79
84528;BME280;74768;51.152;6.196;2024-01-06T12:17:49;100432.22;;;3.59;95.96
84528;BME280;74768;51.152;6.196;2024-01-06T12:20:14;100424.47;;;3.55;96.34
84528;BME280;74768;51.152;6.196;2024-01-06T12:22:40;100427.78;;;3.64;95.84
84528;BME280;74768;51.152;6.196;2024-01-06T12:25:05;100423.47;;;3.62;96.25
84528;BME280;74768;51.152;6.196;2024-01-06T12:27:32;100426.97;;;3.61;95.49
84528;BME280;74768;51.152;6.196;2024-01-06T12:29:57;100437.44;;;3.59;95.23
84528;BME280;74768;51.152;6.196;2024-01-06T12:32:23;100435.88;;;3.49;95.36
84528;BME280;74768;51.152;6.196;2024-01-06T12:34:48;100435.00;;;3.50;96.05
84528;BME280;74768;51.152;6.196;2024-01-06T12:37:14;100429.72;;;3.51;96.00
84528;BME280;74768;51.152;6.196;2024-01-06T12:39:40;100430.69;;;3.46;95.38
84528;BME280;74768;51.152;6.196;2024-01-06T12:42:07;100434.19;;;3.46;95.64
84528;BME280;74768;51.152;6.196;2024-01-06T12:44:34;100434.03;;;3.56;96.06
84528;BME280;74768;51.152;6.196;2024-01-06T12:47:02;100439.22;;;3.57;95.76
84528;BME280;74768;51.152;6.196;2024-01-06T12:49:28;100437.53;;;3.55;94.94
84528;BME280;74768;51.152;6.196;2024-01-06T12:51:54;100436.75;;;3.49;94.81
84528;BME280;74768;51.152;6.196;2024-01-06T12:54:19;100436.78;;;3.46;94.46
84528;BME280;74768;51.152;6.196;2024-01-06T12:56:44;100435.03;;;3.48;95.42
84528;BME280;74768;51.152;6.196;2024-01-06T12:59:10;100431.56;;;3.46;95.61
84528;BME280;74768;51.152;6.196;2024-01-06T13:01:36;100437.53;;;3.53;95.98